Time;durP1;ratioP1;P1;durP2;ratioP2;P2;SDS_P1;SDS_P2;PMS_P1;PMS_P2;Temp;Humidity;BMP_temperature;BMP_pressure;BME280_temperature;BME280_humidity;BME280_pressure;Samples;Min_cycle;Max_cycle;Signal;HPM_P1;HPM_P2
2021/09/01 00:00:30;;;;;;;6.72;2.17;;;17.20;99.90;;;;;;5032485;28;20496;-85
2021/09/01 00:02:56;;;;;;;7.53;2.75;;;17.10;99.90;;;;;;5032560;28;20461;-85
2021/09/01 00:05:23;;;;;;;7.13;2.75;;;17.10;99.90;;;;;;5032626;28;20021;-86
2021/09/01 00:07:49;;;;;;;6.97;2.47;;;17.10;99.90;;;;;;5033596;28;20044;-85
2021/09/01 00:10:18;;;;;;;7.53;2.67;;;17.00;99.90;;;;;;5031893;28;20045;-85
2021/09/01 00:12:44;;;;;;;8.52;2.63;;;17.10;99.90;;;;;;5032341;28;20025;-85
2021/09/01 00:15:12;;;;;;;7.28;2.40;;;17.00;99.90;;;;;;5032111;28;20033;-85
2021/09/01 00:17:39;;;;;;;7.05;2.63;;;17.00;99.90;;;;;;5032346;28;20103;-85
2021/09/01 00:20:08;;;;;;;13.27;3.35;;;17.00;99.90;;;;;;5032345;28;20034;-85
2021/09/01 00:22:35;;;;;;;7.55;2.60;;;17.00;99.90;;;;;;5032460;28;20375;-85
2021/09/01 00:25:02;;;;;;;7.03;2.60;;;17.00;99.90;;;;;;5032481;28;20091;-85
2021/09/01 00:27:28;;;;;;;8.30;2.88;;;16.90;99.90;;;;;;5032241;28;20382;-85
2021/09/01 00:29:55;;;;;;;9.07;2.85;;;16.90;99.90;;;;;;5031751;28;20025;-86
2021/09/01 00:32:21;;;;;;;6.65;2.50;;;16.90;99.90;;;;;;5033069;28;20021;-86
2021/09/01 00:34:48;;;;;;;7.53;2.50;;;16.90;99.90;;;;;;5032304;28;20485;-84
2021/09/01 00:37:14;;;;;;;8.15;2.65;;;16.90;99.90;;;;;;5032107;28;20079;-86
2021/09/01 00:39:42;;;;;;;9.48;2.83;;;16.90;99.90;;;;;;5032616;28;20033;-86
2021/09/01 00:42:09;;;;;;;7.05;2.38;;;16.90;99.90;;;;;;5032043;28;20496;-85
2021/09/01 00:44:37;;;;;;;8.25;2.17;;;16.90;99.90;;;;;;5033504;28;20036;-85
2021/09/01 00:47:05;;;;;;;7.22;2.53;;;16.90;99.90;;;;;;5031980;28;20124;-85
2021/09/01 00:49:31;;;;;;;7.15;2.60;;;16.90;99.90;;;;;;5032209;28;20381;-85
2021/09/01 00:52:00;;;;;;;7.68;2.67;;;16.90;99.90;;;;;;5032623;28;20124;-85
2021/09/01 00:54:29;;;;;;;6.15;2.10;;;16.90;99.90;;;;;;5033533;28;20022;-85
2021/09/01 00:57:01;;;;;;;6.43;2.10;;;16.90;99.90;;;;;;5032935;28;20018;-85
2021/09/01 00:59:30;;;;;;;6.35;2.25;;;16.90;99.90;;;;;;5032069;28;20052;-86
2021/09/01 01:01:58;;;;;;;5.45;2.10;;;16.90;99.90;;;;;;5031621;28;20026;-85
2021/09/01 01:04:27;;;;;;;5.70;2.20;;;16.90;99.90;;;;;;5031583;28;20482;-85
2021/09/01 01:07:17;;;;;;;6.53;2.30;;;16.90;99.90;;;;;;5031910;28;20092;-85
2021/09/01 01:09:47;;;;;;;7.28;2.25;;;16.90;99.90;;;;;;5032837;28;20037;-85
2021/09/01 01:12:19;;;;;;;6.10;2.20;;;16.90;99.90;;;;;;5035660;28;20038;-85
2021/09/01 01:14:54;;;;;;;7.03;2.70;;;16.90;99.90;;;;;;5035607;28;20032;-85
2021/09/01 01:17:24;;;;;;;3.92;2.05;;;16.90;99.90;;;;;;5035831;28;20107;-86
2021/09/01 01:19:53;;;;;;;9.30;2.60;;;16.90;99.90;;;;;;5036554;28;20069;-84
2021/09/01 01:22:25;;;;;;;5.30;2.40;;;16.90;99.90;;;;;;5035713;28;20495;-84
2021/09/01 01:25:02;;;;;;;7.65;2.58;;;16.90;99.90;;;;;;5035478;28;20026;-85
2021/09/01 01:27:41;;;;;;;4.95;1.95;;;16.90;99.90;;;;;;5035819;28;20055;-85
2021/09/01 01:30:11;;;;;;;7.35;2.42;;;16.90;99.90;;;;;;5036792;28;20126;-85
2021/09/01 01:32:39;;;;;;;9.70;2.10;;;16.90;99.90;;;;;;5036540;28;20423;-85
2021/09/01 01:35:09;;;;;;;9.13;2.03;;;16.80;99.90;;;;;;5051550;28;20520;-85
2021/09/01 01:37:36;;;;;;;6.82;2.33;;;16.90;99.90;;;;;;5035234;28;20025;-85
2021/09/01 01:40:04;;;;;;;5.95;2.15;;;16.90;99.90;;;;;;5034969;28;20029;-85
2021/09/01 01:42:36;;;;;;;4.80;1.92;;;16.90;99.90;;;;;;5035280;28;20036;-85
2021/09/01 01:45:03;;;;;;;6.00;2.40;;;16.90;99.90;;;;;;5035420;28;20564;-85
2021/09/01 01:47:29;;;;;;;7.20;2.60;;;16.90;99.90;;;;;;5035197;28;20067;-85
2021/09/01 01:49:56;;;;;;;5.85;2.03;;;16.90;99.90;;;;;;5034741;28;20029;-85
2021/09/01 01:52:23;;;;;;;6.82;2.08;;;16.80;99.90;;;;;;5036782;28;20377;-85
2021/09/01 01:54:51;;;;;;;5.38;2.38;;;16.80;99.90;;;;;;5036245;28;20032;-85
2021/09/01 01:57:19;;;;;;;7.10;2.35;;;16.80;99.90;;;;;;5035058;28;20025;-85
2021/09/01 01:59:46;;;;;;;7.78;2.53;;;16.80;99.90;;;;;;5034989;28;20026;-86
2021/09/01 02:02:12;;;;;;;7.57;2.47;;;16.80;99.90;;;;;;5034781;28;20029;-85
2021/09/01 02:04:39;;;;;;;6.93;2.50;;;16.80;99.90;;;;;;5034978;28;20021;-86
2021/09/01 02:07:06;;;;;;;8.40;2.67;;;16.80;99.90;;;;;;5034705;28;20120;-85
2021/09/01 02:09:33;;;;;;;7.75;2.40;;;16.80;99.90;;;;;;5034302;28;20025;-85
2021/09/01 02:12:00;;;;;;;8.88;2.80;;;16.80;99.90;;;;;;5034671;28;20045;-85
2021/09/01 02:14:27;;;;;;;6.03;2.40;;;16.70;99.90;;;;;;5034764;28;20025;-85
2021/09/01 02:16:55;;;;;;;9.90;3.10;;;16.80;99.90;;;;;;5034584;28;20044;-85
2021/09/01 02:19:21;;;;;;;11.82;3.33;;;16.80;99.90;;;;;;5034182;28;20071;-85
2021/09/01 02:21:48;;;;;;;6.85;2.85;;;16.70;99.90;;;;;;5033287;28;20034;-86
2021/09/01 02:24:15;;;;;;;6.43;2.47;;;16.70;99.90;;;;;;5034321;28;20040;-86
2021/09/01 02:26:41;;;;;;;7.45;2.78;;;16.70;99.90;;;;;;5034622;28;20119;-86
2021/09/01 02:29:08;;;;;;;7.60;2.83;;;16.70;99.90;;;;;;5034535;28;20524;-85
2021/09/01 02:31:34;;;;;;;7.85;2.85;;;16.70;99.90;;;;;;5034213;28;20465;-85
2021/09/01 02:34:01;;;;;;;6.20;2.40;;;16.70;99.90;;;;;;5034451;28;20022;-85
2021/09/01 02:36:27;;;;;;;7.63;2.60;;;16.70;99.90;;;;;;5034411;28;20045;-86
2021/09/01 02:38:54;;;;;;;8.00;2.90;;;16.70;99.90;;;;;;5034093;28;20033;-85
2021/09/01 02:41:23;;;;;;;7.00;2.38;;;16.70;99.90;;;;;;5034015;28;20040;-86
2021/09/01 02:43:50;;;;;;;6.47;2.22;;;16.70;99.90;;;;;;5034107;28;20383;-85
2021/09/01 02:46:18;;;;;;;9.18;3.05;;;16.70;99.90;;;;;;5033000;28;20366;-86
2021/09/01 02:48:45;;;;;;;5.75;2.20;;;16.60;99.90;;;;;;5033838;28;20559;-85
2021/09/01 02:51:11;;;;;;;7.55;2.60;;;16.60;99.90;;;;;;5033411;28;20045;-86
2021/09/01 02:53:38;;;;;;;4.40;2.20;;;16.60;99.90;;;;;;5050776;28;20104;-86
2021/09/01 02:56:05;;;;;;;6.28;2.50;;;16.60;99.90;;;;;;5034206;28;20076;-86
2021/09/01 02:58:31;;;;;;;5.88;2.58;;;16.60;99.90;;;;;;5033512;28;20120;-85
2021/09/01 03:00:58;;;;;;;5.75;2.40;;;16.60;99.90;;;;;;5034608;28;20033;-85
2021/09/01 03:03:24;;;;;;;7.68;2.60;;;16.60;99.90;;;;;;5033694;28;20025;-85
2021/09/01 03:05:51;;;;;;;5.53;2.47;;;16.60;99.90;;;;;;5033856;28;20025;-85
2021/09/01 03:08:17;;;;;;;8.27;2.58;;;16.60;99.90;;;;;;5033565;28;20037;-85
2021/09/01 03:10:45;;;;;;;7.75;2.70;;;16.60;99.90;;;;;;5033492;28;20114;-85
2021/09/01 03:13:11;;;;;;;5.75;2.83;;;16.60;99.90;;;;;;5032920;28;20461;-85
2021/09/01 03:15:37;;;;;;;6.78;2.17;;;16.60;99.90;;;;;;5034889;28;20022;-85
2021/09/01 03:18:04;;;;;;;5.97;2.35;;;16.60;99.90;;;;;;5033576;28;20036;-85
2021/09/01 03:20:30;;;;;;;9.93;2.17;;;16.60;99.90;;;;;;5033465;28;20033;-85
2021/09/01 03:22:56;;;;;;;6.40;2.50;;;16.60;99.90;;;;;;5033503;28;20021;-85
2021/09/01 03:25:24;;;;;;;7.50;2.58;;;16.60;99.90;;;;;;5033532;28;20381;-85
2021/09/01 03:27:50;;;;;;;7.65;2.63;;;16.60;99.90;;;;;;5034427;28;20100;-85
2021/09/01 03:30:17;;;;;;;7.25;2.90;;;16.60;99.90;;;;;;5033125;28;20079;-85
2021/09/01 03:32:43;;;;;;;7.15;2.58;;;16.60;99.90;;;;;;5049068;28;20516;-85
2021/09/01 03:35:10;;;;;;;7.50;2.70;;;16.50;99.90;;;;;;5033030;28;20025;-86
2021/09/01 03:37:37;;;;;;;6.88;2.50;;;16.50;99.90;;;;;;5033032;28;20025;-86
2021/09/01 03:40:04;;;;;;;6.90;2.83;;;16.50;99.90;;;;;;5032824;28;20037;-85
2021/09/01 03:42:32;;;;;;;7.53;3.03;;;16.50;99.90;;;;;;5033900;28;20064;-85
2021/09/01 03:44:59;;;;;;;6.65;3.10;;;16.50;99.90;;;;;;5033157;28;20036;-85
2021/09/01 03:47:26;;;;;;;5.47;2.63;;;16.50;99.90;;;;;;5034266;28;20028;-85
2021/09/01 03:49:52;;;;;;;8.27;2.85;;;16.50;99.90;;;;;;5032590;28;20465;-85
2021/09/01 03:52:18;;;;;;;7.55;2.50;;;16.40;99.90;;;;;;5033347;28;20401;-85
2021/09/01 03:54:44;;;;;;;6.57;2.78;;;16.50;99.90;;;;;;5032827;28;20056;-85
2021/09/01 03:57:11;;;;;;;6.53;2.38;;;16.50;99.90;;;;;;5032650;28;20053;-85
2021/09/01 03:59:37;;;;;;;7.25;2.80;;;16.40;99.90;;;;;;5032820;28;20183;-85
2021/09/01 04:02:04;;;;;;;6.63;2.35;;;16.40;99.90;;;;;;5031893;28;20036;-85
2021/09/01 04:04:30;;;;;;;5.65;2.40;;;16.40;99.90;;;;;;5032582;28;20047;-86
2021/09/01 04:06:56;;;;;;;6.88;2.50;;;16.40;99.90;;;;;;5032594;28;20022;-86
2021/09/01 04:09:23;;;;;;;6.78;2.70;;;16.40;99.90;;;;;;5032195;28;20508;-86
2021/09/01 04:11:50;;;;;;;5.88;2.60;;;16.40;99.90;;;;;;5031800;28;20033;-85
2021/09/01 04:14:17;;;;;;;5.20;2.50;;;16.40;99.90;;;;;;5032704;28;20358;-86
2021/09/01 04:16:44;;;;;;;6.88;2.80;;;16.40;99.90;;;;;;5032470;28;20028;-85
2021/09/01 04:19:11;;;;;;;7.45;2.22;;;16.40;99.90;;;;;;5032513;28;20021;-85
2021/09/01 04:21:37;;;;;;;6.18;2.50;;;16.40;99.90;;;;;;5032058;28;20024;-85
2021/09/01 04:24:04;;;;;;;5.38;2.17;;;16.40;99.90;;;;;;5032446;28;20028;-85
2021/09/01 04:26:32;;;;;;;4.30;2.13;;;16.40;99.90;;;;;;5033352;28;20017;-86
2021/09/01 04:28:58;;;;;;;6.65;2.72;;;16.40;99.90;;;;;;5032381;28;20474;-85
2021/09/01 04:31:25;;;;;;;5.05;2.13;;;16.40;99.90;;;;;;5033498;28;20076;-85
2021/09/01 04:33:52;;;;;;;5.70;2.28;;;16.40;99.90;;;;;;5033259;28;20022;-85
2021/09/01 04:36:19;;;;;;;6.93;2.20;;;16.40;99.90;;;;;;5031200;28;20068;-85
2021/09/01 04:38:46;;;;;;;7.75;2.72;;;16.40;99.90;;;;;;5029805;28;20041;-85
2021/09/01 04:41:13;;;;;;;5.82;2.20;;;16.40;99.90;;;;;;5029821;28;20029;-84
2021/09/01 04:43:41;;;;;;;8.07;2.50;;;16.40;99.90;;;;;;5029654;28;20025;-85
2021/09/01 04:46:09;;;;;;;8.40;2.58;;;16.40;99.90;;;;;;5031052;28;20029;-85
2021/09/01 04:48:35;;;;;;;6.70;2.38;;;16.40;99.90;;;;;;5030147;28;20057;-85
2021/09/01 04:51:02;;;;;;;4.97;2.00;;;16.30;99.90;;;;;;5029139;28;20069;-85
2021/09/01 04:53:28;;;;;;;5.20;2.17;;;16.40;99.90;;;;;;5029582;28;20112;-85
2021/09/01 04:55:54;;;;;;;8.85;2.67;;;16.40;99.90;;;;;;5029177;28;20025;-85
2021/09/01 04:58:21;;;;;;;6.28;2.10;;;16.40;99.90;;;;;;5030090;28;20093;-85
2021/09/01 05:00:48;;;;;;;4.95;2.00;;;16.40;99.90;;;;;;5029767;28;20021;-85
2021/09/01 05:03:15;;;;;;;5.32;2.10;;;16.30;99.90;;;;;;5030010;28;20063;-85
2021/09/01 05:05:42;;;;;;;5.00;1.90;;;16.40;99.90;;;;;;5029724;28;20487;-85
2021/09/01 05:08:09;;;;;;;4.97;2.10;;;16.40;99.90;;;;;;5029787;28;20056;-84
2021/09/01 05:10:35;;;;;;;7.35;2.28;;;16.40;99.90;;;;;;5029073;28;20096;-85
2021/09/01 05:13:02;;;;;;;6.68;2.42;;;16.40;99.90;;;;;;5029688;28;20026;-85
2021/09/01 05:15:32;;;;;;;6.22;2.08;;;16.40;99.90;;;;;;5018438;28;20033;-84
2021/09/01 05:18:02;;;;;;;8.03;2.93;;;16.30;99.90;;;;;;4991492;28;20034;-85
2021/09/01 05:20:49;;;;;;;6.13;2.25;;;16.40;99.90;;;;;;4990404;28;20109;-85
2021/09/01 05:23:22;;;;;;;4.53;2.15;;;16.40;99.90;;;;;;4990230;28;20023;-86
2021/09/01 05:26:06;;;;;;;6.07;2.20;;;16.40;99.90;;;;;;4990429;28;20026;-84
2021/09/01 05:28:37;;;;;;;5.35;2.15;;;16.40;99.90;;;;;;4990600;28;20065;-85
2021/09/01 05:31:22;;;;;;;5.93;1.85;;;16.40;99.90;;;;;;4990005;28;20110;-85
2021/09/01 05:33:57;;;;;;;6.03;2.15;;;16.40;99.90;;;;;;4997487;28;20107;-86
2021/09/01 05:36:29;;;;;;;4.00;1.85;;;16.40;99.90;;;;;;5015891;28;20040;-88
2021/09/01 05:39:00;;;;;;;5.40;2.40;;;16.50;99.90;;;;;;5022393;28;20091;-86
2021/09/01 05:41:30;;;;;;;6.07;2.13;;;16.40;99.90;;;;;;5013417;28;20041;-87
2021/09/01 05:44:03;;;;;;;5.32;2.28;;;16.40;99.90;;;;;;5025727;28;20034;-86
2021/09/01 05:46:31;;;;;;;;;;;16.50;99.90;;;;;;4999151;28;20044;-87
2021/09/01 05:49:00;;;;;;;4.65;1.85;;;16.30;99.90;;;;;;5014893;28;19906;-86
2021/09/01 05:51:34;;;;;;;3.95;1.92;;;16.40;99.90;;;;;;5038550;28;20048;-86
2021/09/01 05:54:10;;;;;;;5.93;2.30;;;16.40;99.90;;;;;;5038548;28;20032;-86
2021/09/01 05:56:44;;;;;;;9.25;2.17;;;16.40;99.90;;;;;;5038644;28;20493;-86
2021/09/01 05:59:17;;;;;;;4.90;2.10;;;16.40;99.90;;;;;;5050297;28;20053;-87
2021/09/01 06:01:54;;;;;;;6.20;1.70;;;16.50;99.90;;;;;;5023669;28;20508;-86
2021/09/01 06:04:28;;;;;;;5.40;1.80;;;16.60;99.90;;;;;;5046151;28;20365;-87
2021/09/01 06:07:02;;;;;;;5.28;2.10;;;16.60;99.90;;;;;;5035534;28;20033;-87
2021/09/01 06:09:37;;;;;;;4.43;2.10;;;16.60;99.90;;;;;;5050375;28;20029;-85
2021/09/01 06:12:06;;;;;;;5.60;2.35;;;16.60;99.90;;;;;;5041306;28;20029;-85
2021/09/01 06:14:46;;;;;;;5.55;2.00;;;16.60;99.90;;;;;;5043223;28;20049;-86
2021/09/01 06:17:21;;;;;;;4.07;1.77;;;16.70;99.90;;;;;;5050518;28;20075;-86
2021/09/01 06:19:56;;;;;;;5.70;2.30;;;16.60;99.90;;;;;;5040067;28;20020;-85
2021/09/01 06:22:36;;;;;;;6.18;1.88;;;16.70;99.90;;;;;;5045345;28;20089;-85
2021/09/01 06:25:07;;;;;;;4.32;1.75;;;16.70;99.90;;;;;;5049565;28;20489;-85
2021/09/01 06:27:40;;;;;;;6.97;1.80;;;16.70;99.90;;;;;;5038306;28;20075;-87
2021/09/01 06:30:16;;;;;;;5.43;1.67;;;16.70;99.90;;;;;;5047787;28;20049;-84
2021/09/01 06:32:55;;;;;;;7.70;3.08;;;16.80;99.90;;;;;;5046187;28;20091;-85
2021/09/01 06:35:28;;;;;;;5.43;2.08;;;16.80;99.90;;;;;;5037143;28;20087;-85
2021/09/01 06:38:02;;;;;;;6.25;2.33;;;16.80;99.90;;;;;;5047869;28;20037;-86
2021/09/01 06:40:32;;;;;;;6.50;2.10;;;16.80;99.90;;;;;;5044228;28;20025;-85
2021/09/01 06:43:04;;;;;;;8.48;2.47;;;16.90;99.90;;;;;;5039980;28;20103;-87
2021/09/01 06:45:46;;;;;;;5.55;2.10;;;16.90;99.90;;;;;;5035597;28;20018;-87
2021/09/01 06:48:15;;;;;;;6.53;2.22;;;17.00;99.90;;;;;;5045246;28;20088;-87
2021/09/01 06:50:42;;;;;;;8.80;2.50;;;17.00;99.90;;;;;;5045266;28;20052;-87
2021/09/01 06:53:12;;;;;;;5.22;2.38;;;17.00;99.90;;;;;;5037598;28;20040;-87
2021/09/01 06:55:39;;;;;;;4.70;1.83;;;17.00;99.90;;;;;;5020980;28;20028;-87
2021/09/01 06:58:26;;;;;;;5.50;2.40;;;17.10;99.90;;;;;;5035224;28;20428;-87
2021/09/01 07:01:06;;;;;;;6.03;1.92;;;17.10;99.90;;;;;;5039578;28;20108;-86
2021/09/01 07:03:43;;;;;;;5.93;1.70;;;17.10;99.90;;;;;;5048864;28;20025;-86
2021/09/01 07:06:14;;;;;;;6.03;2.05;;;17.10;99.90;;;;;;5041204;28;20028;-86
2021/09/01 07:08:48;;;;;;;5.50;2.33;;;17.20;99.90;;;;;;5024190;28;20038;-86
2021/09/01 07:11:20;;;;;;;7.13;2.40;;;17.20;99.90;;;;;;5049190;28;20037;-87
2021/09/01 07:13:56;;;;;;;7.10;2.30;;;17.20;99.90;;;;;;5038258;28;20025;-87
2021/09/01 07:16:24;;;;;;;6.35;2.30;;;17.20;99.90;;;;;;5043552;28;20055;-87
2021/09/01 07:18:51;;;;;;;4.82;2.15;;;17.20;99.90;;;;;;5033007;28;20036;-85
2021/09/01 07:21:19;;;;;;;5.22;2.03;;;17.30;99.90;;;;;;5012008;28;20115;-85
2021/09/01 07:23:47;;;;;;;5.35;2.25;;;17.30;99.90;;;;;;5045615;28;20029;-85
2021/09/01 07:26:17;;;;;;;6.00;2.20;;;17.30;99.90;;;;;;5030453;28;20032;-86
2021/09/01 07:28:50;;;;;;;8.82;2.47;;;17.30;99.90;;;;;;5039677;28;20109;-85
2021/09/01 07:31:19;;;;;;;6.80;2.35;;;17.40;99.90;;;;;;5048801;28;20033;-86
2021/09/01 07:33:49;;;;;;;11.05;3.03;;;17.40;99.90;;;;;;5035496;28;20055;-86
2021/09/01 07:36:28;;;;;;;6.25;2.25;;;17.50;99.90;;;;;;5033235;28;20496;-87
2021/09/01 07:38:57;;;;;;;4.50;2.10;;;17.50;99.90;;;;;;5032645;28;20029;-86
2021/09/01 07:41:29;;;;;;;6.07;2.13;;;17.50;99.90;;;;;;5033020;28;20056;-86
2021/09/01 07:44:00;;;;;;;8.20;2.58;;;17.60;99.90;;;;;;5032492;28;20077;-86
2021/09/01 07:46:31;;;;;;;8.48;2.38;;;17.70;99.90;;;;;;5032235;28;20090;-86
2021/09/01 07:49:01;;;;;;;5.93;2.28;;;17.60;99.90;;;;;;5033129;28;20534;-86
2021/09/01 07:51:36;;;;;;;6.75;2.10;;;17.70;99.90;;;;;;5033372;28;20079;-85
2021/09/01 07:54:11;;;;;;;6.38;2.05;;;17.70;99.90;;;;;;5032905;28;20108;-86
2021/09/01 07:56:44;;;;;;;8.25;2.53;;;17.80;99.90;;;;;;5033555;28;20025;-86
2021/09/01 07:59:12;;;;;;;;;;;17.80;99.90;;;;;;5033256;28;20104;-86
2021/09/01 08:01:47;;;;;;;5.15;2.08;;;17.80;99.90;;;;;;5032334;28;19905;-86
2021/09/01 08:04:26;;;;;;;7.28;2.50;;;17.90;99.90;;;;;;5033721;28;20069;-86
2021/09/01 08:06:58;;;;;;;7.00;2.10;;;17.90;99.90;;;;;;5032670;28;20033;-86
2021/09/01 08:09:35;;;;;;;9.00;2.70;;;18.00;99.90;;;;;;5032679;28;20045;-86
2021/09/01 08:12:03;;;;;;;8.25;2.67;;;18.00;99.90;;;;;;5037939;28;20041;-87
2021/09/01 08:14:32;;;;;;;5.15;2.35;;;18.00;99.90;;;;;;5048573;28;20074;-86
2021/09/01 08:17:00;;;;;;;6.93;2.40;;;18.00;99.90;;;;;;5018346;28;20071;-86
2021/09/01 08:19:38;;;;;;;7.22;2.53;;;18.10;99.90;;;;;;5037016;28;20028;-85
2021/09/01 08:22:10;;;;;;;6.22;2.28;;;18.20;99.90;;;;;;5034144;28;20085;-86
2021/09/01 08:24:40;;;;;;;5.95;2.20;;;18.20;99.90;;;;;;5048554;28;20032;-86
2021/09/01 08:27:12;;;;;;;6.53;2.42;;;18.10;99.90;;;;;;5037477;28;20036;-86
2021/09/01 08:29:48;;;;;;;4.82;1.80;;;18.20;99.90;;;;;;5043552;28;20025;-87
2021/09/01 08:32:21;;;;;;;5.18;2.50;;;18.30;99.90;;;;;;5038861;28;20045;-86
2021/09/01 08:34:57;;;;;;;6.65;2.05;;;18.40;99.90;;;;;;5033022;28;20032;-86
2021/09/01 08:37:58;;;;;;;6.30;1.73;;;18.50;99.90;;;;;;5040461;28;20021;-87
2021/09/01 08:40:33;;;;;;;5.95;2.15;;;18.70;99.90;;;;;;5039283;28;20259;-87
2021/09/01 08:43:16;;;;;;;5.40;2.08;;;18.90;99.90;;;;;;5033483;28;20049;-86
2021/09/01 08:45:53;;;;;;;7.13;2.13;;;18.90;99.90;;;;;;5044024;28;20029;-86
2021/09/01 08:48:25;;;;;;;4.70;2.00;;;19.10;99.90;;;;;;5028958;28;20454;-86
2021/09/01 08:51:06;;;;;;;7.90;2.27;;;19.10;99.90;;;;;;5047642;28;20052;-86
2021/09/01 08:53:44;;;;;;;6.75;2.13;;;19.20;99.90;;;;;;5040389;28;20028;-87
2021/09/01 08:56:24;;;;;;;5.50;2.20;;;19.30;99.90;;;;;;5023855;28;20120;-87
2021/09/01 08:58:54;;;;;;;5.88;1.90;;;19.30;99.90;;;;;;5049642;28;20044;-86
2021/09/01 09:01:53;;;;;;;5.32;2.05;;;19.40;99.90;;;;;;5031435;28;20490;-87
2021/09/01 09:04:38;;;;;;;5.75;2.00;;;19.40;99.90;;;;;;5044542;28;20083;-87
2021/09/01 09:07:11;;;;;;;6.35;2.33;;;19.50;99.90;;;;;;5037152;28;20036;-87
2021/09/01 09:09:44;;;;;;;6.80;2.70;;;19.50;99.90;;;;;;5042807;28;20038;-86
2021/09/01 09:12:32;;;;;;;5.05;2.13;;;19.40;99.90;;;;;;5040309;28;20072;-87
2021/09/01 09:15:18;;;;;;;5.10;2.35;;;19.40;99.90;;;;;;5036219;28;20029;-87
2021/09/01 09:17:51;;;;;;;7.93;2.40;;;19.40;99.90;;;;;;5042029;28;20022;-86
2021/09/01 09:20:40;;;;;;;4.38;2.05;;;19.30;99.90;;;;;;5044934;28;20306;-87
2021/09/01 09:23:13;;;;;;;5.60;2.00;;;19.50;99.90;;;;;;5035071;28;20469;-87
2021/09/01 09:25:57;;;;;;;5.07;2.00;;;19.60;99.90;;;;;;5042904;28;20049;-88
2021/09/01 09:28:39;;;;;;;6.10;1.95;;;19.80;99.90;;;;;;5046226;28;20033;-87
2021/09/01 09:31:11;;;;;;;7.53;2.13;;;19.90;99.90;;;;;;5021883;28;20056;-87
2021/09/01 09:33:48;;;;;;;9.27;2.75;;;19.90;99.90;;;;;;5048032;28;20029;-87
2021/09/01 09:36:17;;;;;;;6.13;2.30;;;19.90;99.90;;;;;;5041866;28;20103;-87
2021/09/01 09:38:50;;;;;;;5.85;2.10;;;19.90;99.90;;;;;;5050951;28;20025;-87
2021/09/01 09:41:24;;;;;;;4.90;2.00;;;19.90;99.90;;;;;;5041452;28;20121;-87
2021/09/01 09:44:01;;;;;;;5.00;2.17;;;20.00;99.90;;;;;;5049876;28;20035;-88
2021/09/01 09:46:57;;;;;;;5.00;1.98;;;20.10;99.90;;;;;;5023188;28;20121;-87
2021/09/01 09:49:33;;;;;;;7.32;2.10;;;20.20;99.90;;;;;;5027864;28;20028;-85
2021/09/01 09:52:20;;;;;;;8.20;2.70;;;20.30;99.90;;;;;;5042518;28;20489;-86
2021/09/01 09:54:54;;;;;;;7.35;2.75;;;20.30;99.90;;;;;;5048015;28;20112;-86
2021/09/01 09:57:22;;;;;;;6.22;2.17;;;20.20;99.90;;;;;;5038969;28;20033;-86
2021/09/01 09:59:53;;;;;;;6.30;2.40;;;20.10;99.90;;;;;;5044631;28;20108;-87
2021/09/01 10:02:34;;;;;;;4.75;2.33;;;20.00;99.90;;;;;;5052106;28;20032;-86
2021/09/01 10:05:12;;;;;;;6.90;2.22;;;20.10;99.90;;;;;;5036214;28;20031;-86
2021/09/01 10:07:40;;;;;;;5.20;2.10;;;20.20;99.90;;;;;;5034497;28;20030;-87
2021/09/01 10:10:08;;;;;;;5.68;2.30;;;20.20;99.90;;;;;;5038632;28;20030;-86
2021/09/01 10:12:44;;;;;;;5.43;2.40;;;20.20;99.90;;;;;;5049550;28;20033;-86
2021/09/01 10:15:24;;;;;;;6.13;2.00;;;20.20;99.90;;;;;;5021811;28;20021;-86
2021/09/01 10:18:01;;;;;;;5.47;2.40;;;20.20;99.90;;;;;;5042358;28;20496;-88
2021/09/01 10:20:29;;;;;;;5.35;1.92;;;20.10;99.90;;;;;;5035763;28;20492;-88
2021/09/01 10:23:07;;;;;;;5.82;2.03;;;20.10;99.90;;;;;;5049907;28;20021;-87
2021/09/01 10:25:49;;;;;;;7.03;2.30;;;20.10;99.90;;;;;;5031503;28;20474;-87
2021/09/01 10:28:37;;;;;;;5.15;2.20;;;20.10;99.90;;;;;;5023793;28;20044;-87
2021/09/01 10:31:20;;;;;;;5.63;2.30;;;20.20;99.90;;;;;;5020462;28;20370;-87
2021/09/01 10:33:52;;;;;;;9.52;3.53;;;20.30;99.90;;;;;;5043427;28;20017;-87
2021/09/01 10:36:52;;;;;;;7.15;2.60;;;20.20;99.90;;;;;;5032206;28;20017;-87
2021/09/01 10:39:38;;;;;;;5.85;2.50;;;20.20;99.90;;;;;;5012321;28;20635;-87
2021/09/01 10:42:38;;;;;;;4.90;2.28;;;20.20;99.90;;;;;;5034927;28;20094;-87
2021/09/01 10:45:19;;;;;;;7.85;2.40;;;20.20;99.90;;;;;;5012603;28;20420;-87
2021/09/01 10:48:09;;;;;;;5.93;2.50;;;20.20;99.90;;;;;;5045649;28;20021;-88
2021/09/01 10:50:51;;;;;;;6.10;2.05;;;20.30;99.90;;;;;;5025583;28;20061;-88
2021/09/01 10:53:23;;;;;;;5.68;2.00;;;20.50;99.90;;;;;;5026577;28;20381;-88
2021/09/01 10:56:04;;;;;;;6.35;2.17;;;20.60;99.90;;;;;;5043890;28;20033;-88
2021/09/01 10:58:43;;;;;;;5.72;2.40;;;20.80;99.90;;;;;;5033749;28;20021;-88
2021/09/01 11:01:16;;;;;;;6.50;2.50;;;20.90;99.90;;;;;;5022859;28;20013;-88
2021/09/01 11:03:48;;;;;;;6.40;2.30;;;21.00;99.90;;;;;;5044720;28;20055;-88
2021/09/01 11:06:25;;;;;;;5.35;2.30;;;21.00;99.90;;;;;;5042992;28;20017;-88
2021/09/01 11:09:17;;;;;;;6.57;2.63;;;21.00;99.90;;;;;;5035193;28;20032;-88
2021/09/01 11:11:54;;;;;;;4.25;2.03;;;21.00;99.90;;;;;;5044829;28;20037;-88
2021/09/01 11:14:46;;;;;;;5.45;2.45;;;21.00;99.90;;;;;;5038894;28;20087;-87
2021/09/01 11:17:21;;;;;;;6.90;2.03;;;20.90;99.90;;;;;;5026224;28;20033;-88
2021/09/01 11:19:53;;;;;;;7.28;2.40;;;20.80;99.90;;;;;;5036331;28;20021;-88
2021/09/01 11:22:29;;;;;;;7.43;2.58;;;20.70;99.90;;;;;;5035688;28;20033;-88
2021/09/01 11:25:11;;;;;;;6.80;2.53;;;20.70;99.90;;;;;;5049383;28;20025;-88
2021/09/01 11:27:47;;;;;;;5.27;2.10;;;20.60;99.90;;;;;;5040393;28;20025;-88
2021/09/01 11:30:19;;;;;;;6.70;2.58;;;20.50;99.90;;;;;;5039476;28;20025;-89
2021/09/01 11:32:53;;;;;;;5.95;1.83;;;20.50;99.90;;;;;;5049213;28;20473;-89
2021/09/01 11:35:25;;;;;;;7.00;2.15;;;20.50;99.90;;;;;;5037093;28;20021;-89
2021/09/01 11:37:58;;;;;;;5.43;2.10;;;20.60;99.90;;;;;;5033999;28;20038;-88
2021/09/01 11:40:36;;;;;;;7.10;2.30;;;20.60;99.90;;;;;;5037390;28;20124;-88
2021/09/01 11:43:25;;;;;;;6.35;1.90;;;20.80;99.90;;;;;;5034030;28;20017;-88
2021/09/01 11:45:53;;;;;;;4.85;1.98;;;21.00;99.90;;;;;;5040401;28;20136;-88
2021/09/01 11:48:21;;;;;;;7.53;2.38;;;21.10;99.90;;;;;;5044281;28;20021;-88
2021/09/01 11:50:51;;;;;;;6.68;2.47;;;21.20;99.90;;;;;;5016612;28;20065;-88
2021/09/01 11:53:20;;;;;;;5.30;2.00;;;21.40;99.90;;;;;;5044719;28;20057;-88
2021/09/01 11:55:49;;;;;;;6.13;2.00;;;21.40;99.90;;;;;;5039523;28;20017;-88
2021/09/01 11:58:29;;;;;;;7.75;2.53;;;21.50;99.90;;;;;;5032305;28;20029;-89
2021/09/01 12:00:59;;;;;;;7.70;2.42;;;21.40;99.90;;;;;;5048525;28;20124;-86
2021/09/01 12:03:27;;;;;;;5.45;1.73;;;21.30;99.90;;;;;;5038759;28;20488;-86
2021/09/01 12:06:12;;;;;;;6.00;2.17;;;21.30;99.90;;;;;;5041758;28;20033;-86
2021/09/01 12:08:52;;;;;;;7.30;2.28;;;21.30;99.90;;;;;;5048133;28;20113;-86
2021/09/01 12:11:21;;;;;;;4.93;2.40;;;21.30;99.90;;;;;;5037329;28;20048;-87
2021/09/01 12:14:01;;;;;;;4.60;2.17;;;21.20;99.90;;;;;;5046160;28;20037;-86
2021/09/01 12:16:29;;;;;;;5.43;1.95;;;21.20;99.90;;;;;;5034469;28;20071;-86
2021/09/01 12:19:09;;;;;;;6.60;1.90;;;21.20;99.90;;;;;;5048205;28;20079;-86
2021/09/01 12:21:47;;;;;;;5.90;2.20;;;21.20;99.90;;;;;;5030964;28;20105;-86
2021/09/01 12:24:15;;;;;;;5.18;2.22;;;21.20;99.90;;;;;;5031772;28;20032;-86
2021/09/01 12:27:09;;;;;;;5.57;1.95;;;21.20;99.90;;;;;;5048329;28;20034;-86
2021/09/01 12:29:51;;;;;;;6.53;1.85;;;21.10;99.90;;;;;;5041285;28;20071;-86
2021/09/01 12:32:41;;;;;;;;;;;;;;;;;;;;;
2021/09/01 12:35:18;;;;;;;5.57;2.30;;;20.90;99.90;;;;;;5022197;28;20029;-87
2021/09/01 12:37:58;;;;;;;4.60;2.10;;;20.90;99.90;;;;;;5047034;28;20079;-87
2021/09/01 12:40:35;;;;;;;4.03;1.88;;;20.90;99.90;;;;;;5038343;28;20032;-87
2021/09/01 12:43:10;;;;;;;4.22;1.98;;;21.00;99.90;;;;;;5033242;28;20056;-87
2021/09/01 12:46:03;;;;;;;3.90;1.80;;;21.00;99.90;;;;;;5040739;28;20021;-86
2021/09/01 12:48:42;;;;;;;;;;;21.30;99.90;;;;;;5037072;28;20179;-87
2021/09/01 12:51:18;;;;;;;5.07;1.70;;;21.40;99.90;;;;;;5021134;28;19929;-87
2021/09/01 12:54:01;;;;;;;;;;;;;;;;;;;;;
2021/09/01 12:56:28;;;;;;;4.38;1.75;;;21.90;99.90;;;;;;5047256;28;20021;-88
2021/09/01 12:59:06;;;;;;;4.45;1.67;;;22.00;99.90;;;;;;5033004;28;20104;-87
2021/09/01 13:01:33;;;;;;;4.38;1.98;;;22.10;99.90;;;;;;5040892;28;20105;-86
2021/09/01 13:03:59;;;;;;;4.32;1.90;;;21.90;99.90;;;;;;5040593;28;20091;-87
2021/09/01 13:06:30;;;;;;;5.35;2.00;;;21.80;99.90;;;;;;5038933;28;20026;-86
2021/09/01 13:08:57;;;;;;;5.90;2.30;;;21.80;99.90;;;;;;5049550;28;20112;-87
2021/09/01 13:11:31;;;;;;;5.22;1.88;;;21.70;99.90;;;;;;5034927;28;20038;-87
2021/09/01 13:13:59;;;;;;;5.78;2.35;;;21.60;99.90;;;;;;5033009;28;20034;-87
2021/09/01 13:16:27;;;;;;;3.08;1.77;;;21.50;99.90;;;;;;5047645;28;20103;-87